Terminal Aerodrome Forecast
Issued by NWS Portland, OR

Home | Current Version | Previous Version | Text Only | Print | Product List | Glossary On
Versions: 1 2 3 4 5 6 7 8 9 10 11 12 13 14
000
FTUS46 KPQR 262326
TAFSLE
TAF
KSLE 262326Z 2700/2724 34010KT P6SM SKC
     FM270600 34004KT P6SM SKC
     FM271400 VRB03KT P6SM SCT015
     FM271800 36009KT P6SM SKC=

USA.gov is the U.S. government's official web portal to all federal, state and local government web resources and services.